createdAt,value
2023-01-29T00:02:25.591Z,0.40
2023-01-29T00:05:47.267Z,0.40
2023-01-29T00:09:08.854Z,0.40
2023-01-29T00:12:30.524Z,0.40
2023-01-29T00:15:56.753Z,0.40
2023-01-29T00:19:18.401Z,0.40
2023-01-29T00:22:39.994Z,0.40
2023-01-29T00:26:01.591Z,0.40
2023-01-29T00:29:23.172Z,0.40
2023-01-29T00:32:46.141Z,0.40
2023-01-29T00:36:09.019Z,0.40
2023-01-29T00:39:46.045Z,0.40
2023-01-29T00:43:08.865Z,0.40
2023-01-29T00:46:30.501Z,0.50
2023-01-29T00:49:53.498Z,0.40
2023-01-29T00:53:15.073Z,0.40
2023-01-29T00:56:37.209Z,0.40
2023-01-29T00:59:58.917Z,0.40
2023-01-29T01:03:20.677Z,0.40
2023-01-29T01:06:43.653Z,0.40
2023-01-29T01:10:05.711Z,0.40
2023-01-29T01:13:27.315Z,0.40
2023-01-29T01:16:48.926Z,0.40
2023-01-29T01:20:11.075Z,0.40
2023-01-29T01:23:34.411Z,0.40
2023-01-29T01:26:56.019Z,0.40
2023-01-29T01:30:18.240Z,0.40
2023-01-29T01:33:40.331Z,0.40
2023-01-29T01:37:01.922Z,0.40
2023-01-29T01:40:25.362Z,0.40
2023-01-29T01:43:47.956Z,0.40
2023-01-29T01:47:09.541Z,0.30
2023-01-29T01:50:32.936Z,0.30
2023-01-29T01:53:56.704Z,0.30
2023-01-29T01:57:21.614Z,0.30
2023-01-29T02:00:43.248Z,0.30
2023-01-29T02:04:07.588Z,0.40
2023-01-29T02:07:29.196Z,0.40
2023-01-29T02:10:50.796Z,0.40
2023-01-29T02:14:13.783Z,0.30
2023-01-29T02:17:35.913Z,0.30
2023-01-29T02:21:05.537Z,0.30
2023-01-29T02:24:57.377Z,0.30
2023-01-29T02:28:24.059Z,0.30
2023-01-29T02:31:47.857Z,0.40
2023-01-29T02:35:11.918Z,0.40
2023-01-29T02:38:36.457Z,0.40
2023-01-29T02:42:01.312Z,0.40
2023-01-29T02:45:29.305Z,0.30
2023-01-29T02:48:55.356Z,0.30
2023-01-29T02:52:18.625Z,0.30
2023-01-29T02:55:43.675Z,0.30
2023-01-29T02:59:08.806Z,0.30
2023-01-29T03:02:34.344Z,0.30
2023-01-29T03:05:59.521Z,0.30
2023-01-29T03:09:24.419Z,0.30
2023-01-29T03:12:47.765Z,0.30
2023-01-29T03:16:11.511Z,0.20
2023-01-29T03:19:36.844Z,0.20
2023-01-29T03:23:01.055Z,0.20
2023-01-29T03:26:22.785Z,0.20
2023-01-29T03:29:44.996Z,0.20
2023-01-29T03:33:08.987Z,0.20
2023-01-29T03:36:35.130Z,0.20
2023-01-29T03:39:56.755Z,0.20
2023-01-29T03:43:23.354Z,0.20
2023-01-29T03:46:48.960Z,0.20
2023-01-29T03:50:16.048Z,0.20
2023-01-29T03:53:42.129Z,0.20
2023-01-29T03:57:09.276Z,0.20
2023-01-29T04:00:33.243Z,0.20
2023-01-29T04:03:58.009Z,0.20
2023-01-29T04:07:20.494Z,0.20
2023-01-29T04:10:44.910Z,0.30
2023-01-29T04:14:07.047Z,0.20
2023-01-29T04:17:31.513Z,0.20
2023-01-29T04:20:53.364Z,0.20
2023-01-29T04:24:15.174Z,0.10
2023-01-29T04:27:42.452Z,0.20
2023-01-29T04:31:06.858Z,0.20
2023-01-29T04:34:29.372Z,0.20
2023-01-29T04:37:56.514Z,0.20
2023-01-29T04:41:21.788Z,0.20
2023-01-29T04:44:48.071Z,0.10
2023-01-29T04:48:14.591Z,0.10
2023-01-29T04:51:43.422Z,0.10
2023-01-29T04:55:07.551Z,0.10
2023-01-29T04:58:32.590Z,0.10
2023-01-29T05:01:55.709Z,0.00
2023-01-29T05:05:18.737Z,0.00
2023-01-29T05:08:40.886Z,0.00
2023-01-29T05:12:03.299Z,0.00
2023-01-29T05:15:26.844Z,0.00
2023-01-29T05:18:49.919Z,0.00
2023-01-29T05:22:12.285Z,0.00
2023-01-29T05:25:33.929Z,0.00
2023-01-29T05:28:56.250Z,-0.10
2023-01-29T05:32:17.950Z,0.00
2023-01-29T05:35:41.038Z,-0.10
2023-01-29T05:39:02.660Z,0.00
2023-01-29T05:42:24.264Z,0.00
2023-01-29T05:45:52.944Z,-0.10
2023-01-29T05:49:14.516Z,-0.10
2023-01-29T05:52:37.483Z,-0.10
2023-01-29T05:56:00.783Z,-0.10
2023-01-29T05:59:22.545Z,0.00
2023-01-29T06:02:44.241Z,0.00
2023-01-29T06:06:06.184Z,0.00
2023-01-29T06:09:29.253Z,0.00
2023-01-29T06:12:51.459Z,-0.10
2023-01-29T06:16:13.692Z,0.00
2023-01-29T06:19:35.289Z,0.00
2023-01-29T06:22:56.874Z,-0.10
2023-01-29T06:26:19.803Z,-0.10
2023-01-29T06:29:41.386Z,-0.10
2023-01-29T06:33:03.098Z,0.00
2023-01-29T06:36:24.724Z,0.00
2023-01-29T06:39:46.304Z,0.00
2023-01-29T06:43:09.243Z,0.00
2023-01-29T06:46:30.876Z,0.00
2023-01-29T06:49:52.448Z,0.00
2023-01-29T06:53:14.024Z,0.00
2023-01-29T06:56:35.724Z,0.00
2023-01-29T06:59:58.706Z,0.00
2023-01-29T07:03:20.367Z,0.00
2023-01-29T07:06:41.981Z,0.00
2023-01-29T07:10:03.831Z,0.00
2023-01-29T07:13:25.421Z,-0.10
2023-01-29T07:16:48.341Z,0.00
2023-01-29T07:20:10.673Z,0.00
2023-01-29T07:23:32.256Z,0.00
2023-01-29T07:26:53.850Z,0.10
2023-01-29T07:30:15.996Z,0.10
2023-01-29T07:33:39.114Z,0.10
2023-01-29T07:37:00.727Z,0.10
2023-01-29T07:40:22.336Z,0.10
2023-01-29T07:43:43.905Z,0.10
2023-01-29T07:47:05.480Z,0.10
2023-01-29T07:50:28.478Z,0.10
2023-01-29T07:53:50.147Z,0.20
2023-01-29T07:57:11.719Z,0.20
2023-01-29T08:00:33.361Z,0.30
2023-01-29T08:03:54.987Z,0.30
2023-01-29T08:07:17.922Z,0.30
2023-01-29T08:10:40.134Z,0.30
2023-01-29T08:14:01.739Z,0.40
2023-01-29T08:17:23.375Z,0.40
2023-01-29T08:20:44.962Z,0.40
2023-01-29T08:24:08.113Z,0.40
2023-01-29T08:27:29.697Z,0.50
2023-01-29T08:30:51.313Z,0.50
2023-01-29T08:34:12.929Z,0.50
2023-01-29T08:37:34.550Z,0.60
2023-01-29T08:40:57.486Z,0.70
2023-01-29T08:44:19.067Z,0.70
2023-01-29T08:47:44.745Z,0.80
2023-01-29T08:51:06.405Z,0.80
2023-01-29T08:54:27.975Z,0.90
2023-01-29T08:57:50.924Z,1.00
2023-01-29T09:01:13.583Z,1.00
2023-01-29T09:04:35.220Z,0.90
2023-01-29T09:07:57.200Z,1.00
2023-01-29T09:11:18.905Z,1.00
2023-01-29T09:14:41.896Z,0.90
2023-01-29T09:18:03.935Z,0.90
2023-01-29T09:21:25.555Z,1.00
2023-01-29T09:24:47.156Z,0.90
2023-01-29T09:28:08.783Z,1.10
2023-01-29T09:31:31.849Z,1.10
2023-01-29T09:34:53.466Z,1.40
2023-01-29T09:38:15.048Z,1.40
2023-01-29T09:41:43.785Z,1.40
2023-01-29T09:45:10.466Z,1.40
2023-01-29T09:48:34.299Z,1.50
2023-01-29T09:51:58.272Z,1.50
2023-01-29T09:55:22.666Z,1.70
2023-01-29T09:58:44.418Z,1.70
2023-01-29T10:02:09.657Z,1.70
2023-01-29T10:05:44.946Z,1.80
2023-01-29T10:09:26.149Z,1.70
2023-01-29T10:12:59.299Z,1.70
2023-01-29T10:16:30.933Z,1.70
2023-01-29T10:20:01.687Z,1.80
2023-01-29T10:23:26.698Z,2.00
2023-01-29T10:26:48.772Z,2.50
2023-01-29T10:30:20.894Z,2.90
2023-01-29T10:37:32.541Z,3.00
2023-01-29T10:40:59.210Z,3.20
2023-01-29T10:44:24.554Z,3.30
2023-01-29T10:47:54.808Z,3.00
2023-01-29T10:51:22.371Z,3.10
2023-01-29T10:54:57.715Z,3.20
2023-01-29T10:58:24.462Z,3.00
2023-01-29T11:01:46.228Z,3.30
2023-01-29T11:05:15.126Z,3.40
2023-01-29T11:08:38.217Z,3.60
2023-01-29T11:12:02.315Z,3.50
2023-01-29T11:15:28.122Z,3.50
2023-01-29T11:18:54.697Z,3.50
2023-01-29T11:22:17.734Z,3.50
2023-01-29T11:25:39.427Z,3.50
2023-01-29T11:29:01.116Z,3.60
2023-01-29T11:32:28.586Z,3.30
2023-01-29T11:35:50.484Z,3.40
2023-01-29T11:39:14.899Z,3.60
2023-01-29T11:42:38.209Z,3.60
2023-01-29T11:46:01.508Z,3.60
2023-01-29T11:49:30.001Z,3.60
2023-01-29T11:52:51.832Z,3.70
2023-01-29T11:56:19.386Z,3.60
2023-01-29T11:59:42.111Z,3.60
2023-01-29T12:03:07.449Z,3.70
2023-01-29T12:06:33.802Z,3.60
2023-01-29T12:09:56.345Z,3.30
2023-01-29T12:13:25.639Z,3.30
2023-01-29T12:16:50.709Z,3.50
2023-01-29T12:20:14.434Z,3.40
2023-01-29T12:23:41.299Z,3.20
2023-01-29T12:27:07.553Z,3.10
2023-01-29T12:30:31.367Z,3.10
2023-01-29T12:33:55.632Z,2.90
2023-01-29T12:37:20.902Z,2.90
2023-01-29T12:40:47.098Z,2.90
2023-01-29T12:44:15.275Z,3.00
2023-01-29T12:47:38.686Z,3.10
2023-01-29T12:51:05.035Z,2.90
2023-01-29T12:54:33.697Z,3.00
2023-01-29T12:57:58.763Z,3.10
2023-01-29T13:01:26.323Z,3.30
2023-01-29T13:04:51.878Z,3.30
2023-01-29T13:08:16.217Z,3.30
2023-01-29T13:11:39.590Z,3.50
2023-01-29T13:15:04.155Z,3.60
2023-01-29T13:18:37.624Z,3.70
2023-01-29T13:22:00.802Z,3.70
2023-01-29T13:25:22.452Z,3.70
2023-01-29T13:28:44.622Z,3.70
2023-01-29T13:32:07.924Z,3.70
2023-01-29T13:35:29.715Z,3.60
2023-01-29T13:38:56.183Z,3.00
2023-01-29T13:42:19.647Z,3.10
2023-01-29T13:45:43.273Z,3.20
2023-01-29T13:49:18.378Z,3.30
2023-01-29T13:52:41.099Z,3.30
2023-01-29T13:56:21.275Z,3.40
2023-01-29T13:59:49.848Z,3.50
2023-01-29T14:03:39.928Z,3.60
2023-01-29T14:07:26.366Z,3.70
2023-01-29T14:11:09.289Z,3.60
2023-01-29T14:14:49.632Z,3.60
2023-01-29T14:18:16.009Z,3.50
2023-01-29T14:21:38.095Z,3.60
2023-01-29T14:25:01.617Z,3.20
2023-01-29T14:28:26.095Z,3.10
2023-01-29T14:31:49.388Z,3.10
2023-01-29T14:35:18.244Z,3.10
2023-01-29T14:38:40.464Z,3.10
2023-01-29T14:42:03.790Z,3.10
2023-01-29T14:45:28.364Z,3.00
2023-01-29T14:48:50.200Z,2.90
2023-01-29T14:52:12.437Z,2.80
2023-01-29T14:55:37.197Z,2.80
2023-01-29T14:59:03.361Z,2.80
2023-01-29T15:02:27.887Z,2.70
2023-01-29T15:05:51.435Z,2.60
2023-01-29T15:09:14.317Z,2.60
2023-01-29T15:12:40.259Z,2.40
2023-01-29T15:16:04.609Z,2.30
2023-01-29T15:19:29.625Z,2.30
2023-01-29T15:22:51.248Z,2.20
2023-01-29T15:26:17.225Z,2.10
2023-01-29T15:29:39.369Z,2.00
2023-01-29T15:33:01.551Z,1.90
2023-01-29T15:36:25.526Z,1.90
2023-01-29T15:39:47.214Z,1.80
2023-01-29T15:43:19.974Z,1.60
2023-01-29T15:46:43.051Z,1.60
2023-01-29T15:50:05.181Z,1.50
2023-01-29T15:53:31.356Z,1.40
2023-01-29T15:56:53.236Z,1.30
2023-01-29T16:00:21.998Z,1.20
2023-01-29T16:03:44.222Z,1.10
2023-01-29T16:07:05.825Z,1.00
2023-01-29T16:10:29.937Z,0.90
2023-01-29T16:13:51.867Z,0.80
2023-01-29T16:17:23.797Z,0.70
2023-01-29T16:20:46.829Z,0.60
2023-01-29T16:24:09.650Z,0.50
2023-01-29T16:27:33.233Z,0.40
2023-01-29T16:30:56.829Z,0.30
2023-01-29T16:34:29.217Z,0.20
2023-01-29T16:37:51.340Z,0.10
2023-01-29T16:41:27.298Z,0.10
2023-01-29T16:44:54.198Z,0.00
2023-01-29T16:48:26.023Z,-0.10
2023-01-29T16:51:47.701Z,-0.20
2023-01-29T16:55:20.468Z,-0.20
2023-01-29T16:58:43.147Z,-0.30
2023-01-29T17:02:11.657Z,-0.40
2023-01-29T17:05:34.023Z,-0.40
2023-01-29T17:08:55.739Z,-0.50
2023-01-29T17:12:19.686Z,-0.50
2023-01-29T17:15:44.382Z,-0.60
2023-01-29T17:19:14.865Z,-0.60
2023-01-29T17:22:36.440Z,-0.60
2023-01-29T17:25:59.325Z,-0.70
2023-01-29T17:29:23.160Z,-0.70
2023-01-29T17:32:47.314Z,-0.80
2023-01-29T17:36:12.434Z,-0.80
2023-01-29T17:39:34.024Z,-0.80
2023-01-29T17:42:55.590Z,-0.80
2023-01-29T17:46:17.451Z,-0.90
2023-01-29T17:49:39.081Z,-0.90
2023-01-29T17:53:01.972Z,-0.90
2023-01-29T17:56:24.517Z,-0.80
2023-01-29T17:59:46.297Z,-0.80
2023-01-29T18:03:07.904Z,-0.90
2023-01-29T18:06:29.691Z,-0.90
2023-01-29T18:09:52.706Z,-0.90
2023-01-29T18:13:14.286Z,-1.00
2023-01-29T18:16:36.061Z,-1.00
2023-01-29T18:19:57.824Z,-1.00
2023-01-29T18:23:19.435Z,-1.10
2023-01-29T18:26:42.469Z,-1.00
2023-01-29T18:30:04.652Z,-1.00
2023-01-29T18:33:26.289Z,-0.90
2023-01-29T18:36:47.975Z,-0.80
2023-01-29T18:40:10.431Z,-0.80
2023-01-29T18:43:33.383Z,-0.80
2023-01-29T18:46:55.016Z,-0.80
2023-01-29T18:50:16.892Z,-0.70
2023-01-29T18:53:38.486Z,-0.70
2023-01-29T18:57:11.135Z,-0.70
2023-01-29T19:00:37.879Z,-0.60
2023-01-29T19:03:59.469Z,-0.60
2023-01-29T19:07:21.068Z,-0.60
2023-01-29T19:10:42.678Z,-0.60
2023-01-29T19:14:04.263Z,-0.60
2023-01-29T19:17:27.316Z,-0.60
2023-01-29T19:20:48.992Z,-0.70
2023-01-29T19:24:10.686Z,-0.70
2023-01-29T19:27:32.289Z,-0.80
2023-01-29T19:30:56.216Z,-0.80
2023-01-29T19:34:19.285Z,-0.90
2023-01-29T19:37:40.868Z,-1.00
2023-01-29T19:41:02.609Z,-1.10
2023-01-29T19:44:24.210Z,-1.20
2023-01-29T19:47:45.866Z,-1.30
2023-01-29T19:51:10.095Z,-1.40
2023-01-29T19:54:31.680Z,-1.40
2023-01-29T19:57:53.611Z,-1.50
2023-01-29T20:01:17.059Z,-1.50
2023-01-29T20:04:38.629Z,-1.60
2023-01-29T20:08:01.568Z,-1.50
2023-01-29T20:11:23.923Z,-1.50
2023-01-29T20:14:45.561Z,-1.50
2023-01-29T20:18:07.137Z,-1.40
2023-01-29T20:21:28.715Z,-1.40
2023-01-29T20:24:51.772Z,-1.30
2023-01-29T20:28:14.169Z,-1.20
2023-01-29T20:31:40.942Z,-1.30
2023-01-29T20:35:02.956Z,-1.30
2023-01-29T20:38:24.710Z,-1.20
2023-01-29T20:41:47.676Z,-1.30
2023-01-29T20:45:09.682Z,-1.30
2023-01-29T20:48:31.348Z,-1.30
2023-01-29T20:51:52.975Z,-1.20
2023-01-29T20:55:14.603Z,-1.20
2023-01-29T20:58:37.896Z,-1.10
2023-01-29T21:01:59.606Z,-1.00
2023-01-29T21:05:21.275Z,-1.00
2023-01-29T21:08:42.852Z,-1.00
2023-01-29T21:12:04.941Z,-1.00
2023-01-29T21:15:27.968Z,-1.10
2023-01-29T21:18:49.558Z,-1.00
2023-01-29T21:22:11.181Z,-1.00
2023-01-29T21:25:32.808Z,-1.00
2023-01-29T21:28:54.540Z,-1.00
2023-01-29T21:32:17.525Z,-1.00
2023-01-29T21:35:39.154Z,-1.00
2023-01-29T21:39:00.826Z,-1.00
2023-01-29T21:42:22.433Z,-1.00
2023-01-29T21:45:44.199Z,-1.10
2023-01-29T21:49:07.158Z,-1.10
2023-01-29T21:52:28.773Z,-1.20
2023-01-29T21:55:50.553Z,-1.20
2023-01-29T21:59:12.289Z,-1.20
2023-01-29T22:02:33.892Z,-1.20
2023-01-29T22:05:56.892Z,-1.30
2023-01-29T22:09:18.589Z,-1.30
2023-01-29T22:12:40.264Z,-1.30
2023-01-29T22:16:01.889Z,-1.30
2023-01-29T22:19:23.532Z,-1.30
2023-01-29T22:22:46.468Z,-1.30
2023-01-29T22:26:08.104Z,-1.30
2023-01-29T22:29:29.728Z,-1.30
2023-01-29T22:32:51.335Z,-1.20
2023-01-29T22:36:12.948Z,-1.20
2023-01-29T22:39:35.927Z,-1.20
2023-01-29T22:42:57.598Z,-1.20
2023-01-29T22:46:19.325Z,-1.20
2023-01-29T22:49:40.942Z,-1.20
2023-01-29T22:53:02.495Z,-1.20
2023-01-29T22:56:26.493Z,-1.20
2023-01-29T22:59:48.071Z,-1.30
2023-01-29T23:03:09.664Z,-1.30
2023-01-29T23:06:31.298Z,-1.40
2023-01-29T23:09:52.871Z,-1.30
2023-01-29T23:13:16.056Z,-1.30
2023-01-29T23:16:37.705Z,-1.40
2023-01-29T23:19:59.279Z,-1.40
2023-01-29T23:23:20.859Z,-1.40
2023-01-29T23:26:42.498Z,-1.30
2023-01-29T23:30:06.472Z,-1.30
2023-01-29T23:33:28.079Z,-1.30
2023-01-29T23:36:49.686Z,-1.30
2023-01-29T23:40:11.805Z,-1.30
2023-01-29T23:43:33.568Z,-1.30
2023-01-29T23:46:56.658Z,-1.30
2023-01-29T23:50:18.632Z,-1.30
2023-01-29T23:53:40.747Z,-1.30
2023-01-29T23:57:02.333Z,-1.40
